sensor_id;sensor_type;location;lat;lon;timestamp;P1;durP1;ratioP1;P2;durP2;ratioP2
11443;SDS011;5778;47.856;12.154;2023-07-28T00:02:02;3.70;;;2.87;;
11443;SDS011;5778;47.856;12.154;2023-07-28T00:04:29;2.90;;;2.50;;
11443;SDS011;5778;47.856;12.154;2023-07-28T00:06:56;4.87;;;2.60;;
11443;SDS011;5778;47.856;12.154;2023-07-28T00:09:23;3.90;;;2.67;;
11443;SDS011;5778;47.856;12.154;2023-07-28T00:11:50;3.10;;;2.53;;
11443;SDS011;5778;47.856;12.154;2023-07-28T00:14:16;2.97;;;2.77;;
11443;SDS011;5778;47.856;12.154;2023-07-28T00:16:45;3.67;;;2.97;;
11443;SDS011;5778;47.856;12.154;2023-07-28T00:19:12;2.73;;;2.40;;
11443;SDS011;5778;47.856;12.154;2023-07-28T00:21:39;3.57;;;2.70;;
11443;SDS011;5778;47.856;12.154;2023-07-28T00:24:06;3.37;;;2.63;;
11443;SDS011;5778;47.856;12.154;2023-07-28T00:26:33;2.90;;;2.60;;
11443;SDS011;5778;47.856;12.154;2023-07-28T00:29:00;4.70;;;2.40;;
11443;SDS011;5778;47.856;12.154;2023-07-28T00:31:30;3.83;;;2.70;;
11443;SDS011;5778;47.856;12.154;2023-07-28T00:33:58;3.63;;;2.23;;
11443;SDS011;5778;47.856;12.154;2023-07-28T00:36:25;2.97;;;2.67;;
11443;SDS011;5778;47.856;12.154;2023-07-28T00:38:52;3.47;;;2.80;;
11443;SDS011;5778;47.856;12.154;2023-07-28T00:41:19;3.33;;;2.60;;
11443;SDS011;5778;47.856;12.154;2023-07-28T00:43:46;3.93;;;2.53;;
11443;SDS011;5778;47.856;12.154;2023-07-28T00:46:13;4.60;;;2.77;;
11443;SDS011;5778;47.856;12.154;2023-07-28T00:48:40;3.30;;;3.00;;
11443;SDS011;5778;47.856;12.154;2023-07-28T00:51:09;3.33;;;3.00;;
11443;SDS011;5778;47.856;12.154;2023-07-28T00:53:37;3.10;;;2.63;;
11443;SDS011;5778;47.856;12.154;2023-07-28T00:56:05;3.60;;;2.73;;
11443;SDS011;5778;47.856;12.154;2023-07-28T00:58:32;3.20;;;2.63;;
11443;SDS011;5778;47.856;12.154;2023-07-28T01:00:59;3.27;;;2.53;;
11443;SDS011;5778;47.856;12.154;2023-07-28T01:03:26;3.00;;;2.70;;
11443;SDS011;5778;47.856;12.154;2023-07-28T01:05:56;3.23;;;2.63;;
11443;SDS011;5778;47.856;12.154;2023-07-28T01:08:36;4.30;;;3.03;;
11443;SDS011;5778;47.856;12.154;2023-07-28T01:11:10;4.63;;;2.80;;
11443;SDS011;5778;47.856;12.154;2023-07-28T01:13:37;3.53;;;2.73;;
11443;SDS011;5778;47.856;12.154;2023-07-28T01:16:05;3.93;;;2.97;;
11443;SDS011;5778;47.856;12.154;2023-07-28T01:18:32;6.77;;;2.73;;
11443;SDS011;5778;47.856;12.154;2023-07-28T01:21:00;4.20;;;2.83;;
11443;SDS011;5778;47.856;12.154;2023-07-28T01:23:32;6.57;;;3.00;;
11443;SDS011;5778;47.856;12.154;2023-07-28T01:26:08;4.47;;;3.03;;
11443;SDS011;5778;47.856;12.154;2023-07-28T01:28:39;5.27;;;2.70;;
11443;SDS011;5778;47.856;12.154;2023-07-28T01:31:07;3.60;;;2.83;;
11443;SDS011;5778;47.856;12.154;2023-07-28T01:33:35;3.17;;;2.80;;
11443;SDS011;5778;47.856;12.154;2023-07-28T01:36:02;5.77;;;3.03;;
11443;SDS011;5778;47.856;12.154;2023-07-28T01:38:30;8.10;;;2.80;;
11443;SDS011;5778;47.856;12.154;2023-07-28T01:40:57;3.10;;;2.60;;
11443;SDS011;5778;47.856;12.154;2023-07-28T01:43:24;6.07;;;3.40;;
11443;SDS011;5778;47.856;12.154;2023-07-28T01:45:52;3.70;;;2.80;;
11443;SDS011;5778;47.856;12.154;2023-07-28T01:48:19;5.00;;;3.13;;
11443;SDS011;5778;47.856;12.154;2023-07-28T01:50:46;4.97;;;2.70;;
11443;SDS011;5778;47.856;12.154;2023-07-28T01:53:13;6.30;;;2.63;;
11443;SDS011;5778;47.856;12.154;2023-07-28T01:55:40;3.67;;;2.50;;
11443;SDS011;5778;47.856;12.154;2023-07-28T01:58:08;4.57;;;2.60;;
11443;SDS011;5778;47.856;12.154;2023-07-28T02:00:36;5.40;;;2.60;;
11443;SDS011;5778;47.856;12.154;2023-07-28T02:03:04;4.47;;;2.60;;
11443;SDS011;5778;47.856;12.154;2023-07-28T02:05:32;3.87;;;2.57;;
11443;SDS011;5778;47.856;12.154;2023-07-28T02:07:59;4.13;;;2.83;;
11443;SDS011;5778;47.856;12.154;2023-07-28T02:10:26;3.13;;;2.70;;
11443;SDS011;5778;47.856;12.154;2023-07-28T02:12:55;8.40;;;2.77;;
11443;SDS011;5778;47.856;12.154;2023-07-28T02:15:22;3.40;;;2.90;;
11443;SDS011;5778;47.856;12.154;2023-07-28T02:17:49;5.60;;;3.00;;
11443;SDS011;5778;47.856;12.154;2023-07-28T02:20:19;5.77;;;2.60;;
11443;SDS011;5778;47.856;12.154;2023-07-28T02:22:46;3.10;;;2.83;;
11443;SDS011;5778;47.856;12.154;2023-07-28T02:25:13;5.90;;;2.90;;
11443;SDS011;5778;47.856;12.154;2023-07-28T02:27:40;4.83;;;3.30;;
11443;SDS011;5778;47.856;12.154;2023-07-28T02:30:07;7.00;;;2.90;;
11443;SDS011;5778;47.856;12.154;2023-07-28T02:32:34;6.50;;;2.80;;
11443;SDS011;5778;47.856;12.154;2023-07-28T02:35:01;4.23;;;2.87;;
11443;SDS011;5778;47.856;12.154;2023-07-28T02:37:29;6.60;;;3.43;;
11443;SDS011;5778;47.856;12.154;2023-07-28T02:39:56;4.37;;;3.03;;
11443;SDS011;5778;47.856;12.154;2023-07-28T02:42:23;4.27;;;2.90;;
11443;SDS011;5778;47.856;12.154;2023-07-28T02:44:50;4.17;;;2.90;;
11443;SDS011;5778;47.856;12.154;2023-07-28T02:47:17;3.40;;;2.80;;
11443;SDS011;5778;47.856;12.154;2023-07-28T02:49:44;3.90;;;2.80;;
11443;SDS011;5778;47.856;12.154;2023-07-28T02:52:11;4.97;;;2.87;;
11443;SDS011;5778;47.856;12.154;2023-07-28T02:54:39;3.60;;;2.83;;
11443;SDS011;5778;47.856;12.154;2023-07-28T02:57:06;6.13;;;3.10;;
11443;SDS011;5778;47.856;12.154;2023-07-28T02:59:33;2.93;;;2.63;;
11443;SDS011;5778;47.856;12.154;2023-07-28T03:02:00;3.20;;;2.90;;
11443;SDS011;5778;47.856;12.154;2023-07-28T03:04:27;4.50;;;3.10;;
11443;SDS011;5778;47.856;12.154;2023-07-28T03:07:13;2.87;;;2.60;;
11443;SDS011;5778;47.856;12.154;2023-07-28T03:09:43;2.83;;;2.63;;
11443;SDS011;5778;47.856;12.154;2023-07-28T03:12:10;5.17;;;2.80;;
11443;SDS011;5778;47.856;12.154;2023-07-28T03:14:38;2.93;;;2.70;;
11443;SDS011;5778;47.856;12.154;2023-07-28T03:17:05;4.40;;;2.80;;
11443;SDS011;5778;47.856;12.154;2023-07-28T03:19:32;5.17;;;3.10;;
11443;SDS011;5778;47.856;12.154;2023-07-28T03:21:59;4.97;;;2.80;;
11443;SDS011;5778;47.856;12.154;2023-07-28T03:24:26;3.70;;;2.67;;
11443;SDS011;5778;47.856;12.154;2023-07-28T03:26:54;5.17;;;2.83;;
11443;SDS011;5778;47.856;12.154;2023-07-28T03:29:21;5.80;;;2.73;;
11443;SDS011;5778;47.856;12.154;2023-07-28T03:31:49;7.77;;;3.10;;
11443;SDS011;5778;47.856;12.154;2023-07-28T03:34:18;3.53;;;2.90;;
11443;SDS011;5778;47.856;12.154;2023-07-28T03:36:45;4.70;;;2.80;;
11443;SDS011;5778;47.856;12.154;2023-07-28T03:39:14;5.10;;;2.97;;
11443;SDS011;5778;47.856;12.154;2023-07-28T03:41:43;3.47;;;3.10;;
11443;SDS011;5778;47.856;12.154;2023-07-28T03:44:12;5.20;;;2.83;;
11443;SDS011;5778;47.856;12.154;2023-07-28T03:46:38;4.43;;;2.87;;
11443;SDS011;5778;47.856;12.154;2023-07-28T03:49:05;4.47;;;2.90;;
11443;SDS011;5778;47.856;12.154;2023-07-28T03:51:32;7.90;;;3.17;;
11443;SDS011;5778;47.856;12.154;2023-07-28T03:53:59;5.23;;;2.90;;
11443;SDS011;5778;47.856;12.154;2023-07-28T03:56:26;3.97;;;2.70;;
11443;SDS011;5778;47.856;12.154;2023-07-28T03:58:55;3.27;;;2.73;;
11443;SDS011;5778;47.856;12.154;2023-07-28T04:01:23;4.90;;;3.00;;
11443;SDS011;5778;47.856;12.154;2023-07-28T04:03:51;4.57;;;3.07;;
11443;SDS011;5778;47.856;12.154;2023-07-28T04:06:17;9.80;;;3.47;;
11443;SDS011;5778;47.856;12.154;2023-07-28T04:08:45;11.27;;;3.27;;
11443;SDS011;5778;47.856;12.154;2023-07-28T04:11:12;12.60;;;3.50;;
11443;SDS011;5778;47.856;12.154;2023-07-28T04:13:39;8.90;;;3.30;;
11443;SDS011;5778;47.856;12.154;2023-07-28T04:16:06;7.20;;;3.47;;
11443;SDS011;5778;47.856;12.154;2023-07-28T04:18:35;5.90;;;3.47;;
11443;SDS011;5778;47.856;12.154;2023-07-28T04:21:01;3.83;;;3.30;;
11443;SDS011;5778;47.856;12.154;2023-07-28T04:23:30;8.60;;;3.00;;
11443;SDS011;5778;47.856;12.154;2023-07-28T04:25:57;7.03;;;3.37;;
11443;SDS011;5778;47.856;12.154;2023-07-28T04:28:37;5.57;;;3.47;;
11443;SDS011;5778;47.856;12.154;2023-07-28T04:31:06;5.53;;;3.67;;
11443;SDS011;5778;47.856;12.154;2023-07-28T04:33:56;4.37;;;3.33;;
11443;SDS011;5778;47.856;12.154;2023-07-28T04:36:30;3.37;;;3.03;;
11443;SDS011;5778;47.856;12.154;2023-07-28T04:38:57;8.50;;;3.20;;
11443;SDS011;5778;47.856;12.154;2023-07-28T04:41:24;7.67;;;3.00;;
11443;SDS011;5778;47.856;12.154;2023-07-28T04:43:52;6.60;;;3.50;;
11443;SDS011;5778;47.856;12.154;2023-07-28T04:46:21;4.67;;;3.20;;
11443;SDS011;5778;47.856;12.154;2023-07-28T04:48:54;5.77;;;2.93;;
11443;SDS011;5778;47.856;12.154;2023-07-28T04:51:44;5.60;;;2.80;;
11443;SDS011;5778;47.856;12.154;2023-07-28T04:54:31;4.17;;;2.43;;
11443;SDS011;5778;47.856;12.154;2023-07-28T04:56:58;4.93;;;2.60;;
11443;SDS011;5778;47.856;12.154;2023-07-28T04:59:31;3.53;;;2.77;;
11443;SDS011;5778;47.856;12.154;2023-07-28T05:01:58;6.63;;;3.00;;
11443;SDS011;5778;47.856;12.154;2023-07-28T05:04:25;4.90;;;2.50;;
11443;SDS011;5778;47.856;12.154;2023-07-28T05:06:56;5.03;;;2.60;;
11443;SDS011;5778;47.856;12.154;2023-07-28T05:09:23;2.83;;;2.23;;
11443;SDS011;5778;47.856;12.154;2023-07-28T05:11:50;6.87;;;2.60;;
11443;SDS011;5778;47.856;12.154;2023-07-28T05:14:17;2.83;;;2.20;;
11443;SDS011;5778;47.856;12.154;2023-07-28T05:16:44;3.17;;;2.60;;
11443;SDS011;5778;47.856;12.154;2023-07-28T05:19:12;2.37;;;2.10;;
11443;SDS011;5778;47.856;12.154;2023-07-28T05:21:58;6.73;;;2.70;;
11443;SDS011;5778;47.856;12.154;2023-07-28T05:24:41;4.10;;;2.40;;
11443;SDS011;5778;47.856;12.154;2023-07-28T05:27:09;4.87;;;2.47;;
11443;SDS011;5778;47.856;12.154;2023-07-28T05:29:37;2.83;;;2.20;;
11443;SDS011;5778;47.856;12.154;2023-07-28T05:32:06;3.83;;;2.27;;
11443;SDS011;5778;47.856;12.154;2023-07-28T05:34:54;3.13;;;2.53;;
11443;SDS011;5778;47.856;12.154;2023-07-28T05:37:22;2.50;;;2.30;;
11443;SDS011;5778;47.856;12.154;2023-07-28T05:39:49;3.17;;;2.40;;
11443;SDS011;5778;47.856;12.154;2023-07-28T05:42:17;3.97;;;2.83;;
11443;SDS011;5778;47.856;12.154;2023-07-28T05:44:46;3.80;;;2.53;;
11443;SDS011;5778;47.856;12.154;2023-07-28T05:47:13;3.00;;;2.50;;
11443;SDS011;5778;47.856;12.154;2023-07-28T05:49:40;4.13;;;2.80;;
11443;SDS011;5778;47.856;12.154;2023-07-28T05:52:07;3.93;;;2.73;;
11443;SDS011;5778;47.856;12.154;2023-07-28T05:54:35;3.70;;;2.20;;
11443;SDS011;5778;47.856;12.154;2023-07-28T05:57:02;2.70;;;2.23;;
11443;SDS011;5778;47.856;12.154;2023-07-28T05:59:30;3.03;;;2.50;;
11443;SDS011;5778;47.856;12.154;2023-07-28T06:01:57;2.70;;;2.40;;
11443;SDS011;5778;47.856;12.154;2023-07-28T06:04:33;3.30;;;2.33;;
11443;SDS011;5778;47.856;12.154;2023-07-28T06:07:03;3.60;;;2.33;;
11443;SDS011;5778;47.856;12.154;2023-07-28T06:09:30;3.53;;;2.47;;
11443;SDS011;5778;47.856;12.154;2023-07-28T06:12:00;2.50;;;2.30;;
11443;SDS011;5778;47.856;12.154;2023-07-28T06:14:27;2.57;;;2.30;;
11443;SDS011;5778;47.856;12.154;2023-07-28T06:16:55;2.83;;;2.60;;
11443;SDS011;5778;47.856;12.154;2023-07-28T06:19:26;3.33;;;2.50;;
11443;SDS011;5778;47.856;12.154;2023-07-28T06:21:53;2.93;;;2.63;;
11443;SDS011;5778;47.856;12.154;2023-07-28T06:24:21;2.70;;;2.50;;
11443;SDS011;5778;47.856;12.154;2023-07-28T06:26:48;3.63;;;2.40;;
11443;SDS011;5778;47.856;12.154;2023-07-28T06:29:17;2.60;;;2.40;;
11443;SDS011;5778;47.856;12.154;2023-07-28T06:31:45;3.17;;;2.40;;
11443;SDS011;5778;47.856;12.154;2023-07-28T06:34:12;2.77;;;2.37;;
11443;SDS011;5778;47.856;12.154;2023-07-28T06:36:39;3.13;;;2.60;;
11443;SDS011;5778;47.856;12.154;2023-07-28T06:39:06;2.73;;;2.53;;
11443;SDS011;5778;47.856;12.154;2023-07-28T06:41:33;3.13;;;2.40;;
11443;SDS011;5778;47.856;12.154;2023-07-28T06:44:01;3.27;;;2.27;;
11443;SDS011;5778;47.856;12.154;2023-07-28T06:46:30;2.77;;;2.53;;
11443;SDS011;5778;47.856;12.154;2023-07-28T06:48:57;3.97;;;2.23;;
11443;SDS011;5778;47.856;12.154;2023-07-28T06:51:24;2.57;;;2.33;;
11443;SDS011;5778;47.856;12.154;2023-07-28T06:53:51;2.47;;;2.20;;
11443;SDS011;5778;47.856;12.154;2023-07-28T06:56:18;2.93;;;2.63;;
11443;SDS011;5778;47.856;12.154;2023-07-28T06:58:45;2.47;;;2.30;;
11443;SDS011;5778;47.856;12.154;2023-07-28T07:01:12;2.63;;;2.23;;
11443;SDS011;5778;47.856;12.154;2023-07-28T07:03:42;3.47;;;2.30;;
11443;SDS011;5778;47.856;12.154;2023-07-28T07:06:09;2.33;;;2.10;;
11443;SDS011;5778;47.856;12.154;2023-07-28T07:08:36;2.47;;;2.27;;
11443;SDS011;5778;47.856;12.154;2023-07-28T07:11:03;2.77;;;2.23;;
11443;SDS011;5778;47.856;12.154;2023-07-28T07:13:31;3.67;;;2.30;;
11443;SDS011;5778;47.856;12.154;2023-07-28T07:15:58;2.33;;;2.20;;
11443;SDS011;5778;47.856;12.154;2023-07-28T07:18:25;3.03;;;2.40;;
11443;SDS011;5778;47.856;12.154;2023-07-28T07:20:54;3.17;;;2.20;;
11443;SDS011;5778;47.856;12.154;2023-07-28T07:23:21;2.40;;;2.20;;
11443;SDS011;5778;47.856;12.154;2023-07-28T07:25:49;3.40;;;2.30;;
11443;SDS011;5778;47.856;12.154;2023-07-28T07:28:16;2.30;;;2.10;;
11443;SDS011;5778;47.856;12.154;2023-07-28T07:30:43;3.20;;;2.30;;
11443;SDS011;5778;47.856;12.154;2023-07-28T07:33:10;3.37;;;2.40;;
11443;SDS011;5778;47.856;12.154;2023-07-28T07:35:37;2.30;;;2.10;;
11443;SDS011;5778;47.856;12.154;2023-07-28T07:38:05;2.13;;;1.93;;
11443;SDS011;5778;47.856;12.154;2023-07-28T07:40:34;2.17;;;2.03;;
11443;SDS011;5778;47.856;12.154;2023-07-28T07:43:01;2.53;;;2.10;;
11443;SDS011;5778;47.856;12.154;2023-07-28T07:45:28;2.30;;;1.97;;
11443;SDS011;5778;47.856;12.154;2023-07-28T07:47:56;2.50;;;2.30;;
11443;SDS011;5778;47.856;12.154;2023-07-28T07:50:24;2.10;;;1.90;;
11443;SDS011;5778;47.856;12.154;2023-07-28T07:52:51;2.00;;;1.90;;
11443;SDS011;5778;47.856;12.154;2023-07-28T07:55:19;2.17;;;1.97;;
11443;SDS011;5778;47.856;12.154;2023-07-28T07:57:46;1.83;;;1.73;;
11443;SDS011;5778;47.856;12.154;2023-07-28T08:00:13;3.37;;;1.80;;
11443;SDS011;5778;47.856;12.154;2023-07-28T08:02:41;3.63;;;2.00;;
11443;SDS011;5778;47.856;12.154;2023-07-28T08:05:11;4.23;;;2.10;;
11443;SDS011;5778;47.856;12.154;2023-07-28T08:07:38;2.27;;;2.07;;
11443;SDS011;5778;47.856;12.154;2023-07-28T08:10:06;2.20;;;2.00;;
11443;SDS011;5778;47.856;12.154;2023-07-28T08:12:34;2.90;;;1.90;;
11443;SDS011;5778;47.856;12.154;2023-07-28T08:15:01;2.33;;;1.87;;
11443;SDS011;5778;47.856;12.154;2023-07-28T08:17:28;1.70;;;1.60;;
11443;SDS011;5778;47.856;12.154;2023-07-28T08:19:55;2.50;;;1.80;;
11443;SDS011;5778;47.856;12.154;2023-07-28T08:22:22;2.37;;;1.80;;
11443;SDS011;5778;47.856;12.154;2023-07-28T08:24:50;1.93;;;1.83;;
11443;SDS011;5778;47.856;12.154;2023-07-28T08:27:17;3.10;;;1.83;;
11443;SDS011;5778;47.856;12.154;2023-07-28T08:29:47;3.03;;;1.90;;
11443;SDS011;5778;47.856;12.154;2023-07-28T08:32:14;2.03;;;1.93;;
11443;SDS011;5778;47.856;12.154;2023-07-28T08:34:41;3.67;;;2.20;;
11443;SDS011;5778;47.856;12.154;2023-07-28T08:37:08;3.20;;;1.90;;
11443;SDS011;5778;47.856;12.154;2023-07-28T08:39:35;2.33;;;2.13;;
11443;SDS011;5778;47.856;12.154;2023-07-28T08:42:02;1.70;;;1.60;;
11443;SDS011;5778;47.856;12.154;2023-07-28T08:44:30;3.30;;;2.10;;
11443;SDS011;5778;47.856;12.154;2023-07-28T08:47:00;1.90;;;1.70;;
11443;SDS011;5778;47.856;12.154;2023-07-28T08:49:29;2.23;;;2.03;;
11443;SDS011;5778;47.856;12.154;2023-07-28T08:51:58;2.30;;;2.00;;
11443;SDS011;5778;47.856;12.154;2023-07-28T08:54:26;1.97;;;1.87;;
11443;SDS011;5778;47.856;12.154;2023-07-28T08:56:53;1.90;;;1.80;;
11443;SDS011;5778;47.856;12.154;2023-07-28T08:59:21;1.90;;;1.80;;
11443;SDS011;5778;47.856;12.154;2023-07-28T09:01:50;2.53;;;1.73;;
11443;SDS011;5778;47.856;12.154;2023-07-28T09:04:19;2.20;;;2.07;;
11443;SDS011;5778;47.856;12.154;2023-07-28T09:06:46;2.90;;;2.00;;
11443;SDS011;5778;47.856;12.154;2023-07-28T09:09:14;3.40;;;2.13;;
11443;SDS011;5778;47.856;12.154;2023-07-28T09:11:45;1.87;;;1.77;;
11443;SDS011;5778;47.856;12.154;2023-07-28T09:14:13;4.87;;;1.70;;
11443;SDS011;5778;47.856;12.154;2023-07-28T09:16:41;2.90;;;2.00;;
11443;SDS011;5778;47.856;12.154;2023-07-28T09:19:09;2.73;;;1.93;;
11443;SDS011;5778;47.856;12.154;2023-07-28T09:21:38;2.17;;;1.97;;
11443;SDS011;5778;47.856;12.154;2023-07-28T09:24:06;2.07;;;1.90;;
11443;SDS011;5778;47.856;12.154;2023-07-28T09:26:36;2.60;;;1.93;;
11443;SDS011;5778;47.856;12.154;2023-07-28T09:29:10;3.23;;;1.80;;
11443;SDS011;5778;47.856;12.154;2023-07-28T09:31:41;2.73;;;2.00;;
11443;SDS011;5778;47.856;12.154;2023-07-28T09:34:08;1.77;;;1.67;;
11443;SDS011;5778;47.856;12.154;2023-07-28T09:36:35;2.20;;;2.00;;
11443;SDS011;5778;47.856;12.154;2023-07-28T09:39:05;2.23;;;1.87;;
11443;SDS011;5778;47.856;12.154;2023-07-28T09:41:34;2.67;;;1.83;;
11443;SDS011;5778;47.856;12.154;2023-07-28T09:44:02;4.10;;;2.10;;
11443;SDS011;5778;47.856;12.154;2023-07-28T09:46:30;2.70;;;2.10;;
11443;SDS011;5778;47.856;12.154;2023-07-28T09:49:02;1.87;;;1.70;;
11443;SDS011;5778;47.856;12.154;2023-07-28T09:51:32;1.90;;;1.80;;
11443;SDS011;5778;47.856;12.154;2023-07-28T09:54:04;2.13;;;1.90;;
11443;SDS011;5778;47.856;12.154;2023-07-28T09:56:37;2.27;;;2.00;;
11443;SDS011;5778;47.856;12.154;2023-07-28T09:59:07;2.30;;;1.70;;
11443;SDS011;5778;47.856;12.154;2023-07-28T10:01:39;3.37;;;1.97;;
11443;SDS011;5778;47.856;12.154;2023-07-28T10:04:06;1.70;;;1.60;;
11443;SDS011;5778;47.856;12.154;2023-07-28T10:06:33;2.20;;;2.00;;
11443;SDS011;5778;47.856;12.154;2023-07-28T10:09:03;2.00;;;1.90;;
11443;SDS011;5778;47.856;12.154;2023-07-28T10:11:32;2.20;;;2.00;;
11443;SDS011;5778;47.856;12.154;2023-07-28T10:13:59;2.30;;;2.07;;
11443;SDS011;5778;47.856;12.154;2023-07-28T10:16:29;2.10;;;1.90;;
11443;SDS011;5778;47.856;12.154;2023-07-28T10:18:58;1.80;;;1.70;;
11443;SDS011;5778;47.856;12.154;2023-07-28T10:21:27;2.27;;;2.10;;
11443;SDS011;5778;47.856;12.154;2023-07-28T10:23:54;2.30;;;2.07;;
11443;SDS011;5778;47.856;12.154;2023-07-28T10:26:41;2.47;;;1.93;;
11443;SDS011;5778;47.856;12.154;2023-07-28T10:29:10;3.00;;;2.40;;
11443;SDS011;5778;47.856;12.154;2023-07-28T10:31:44;3.07;;;2.13;;
11443;SDS011;5778;47.856;12.154;2023-07-28T10:34:16;2.50;;;2.07;;
11443;SDS011;5778;47.856;12.154;2023-07-28T10:36:43;2.10;;;2.00;;
11443;SDS011;5778;47.856;12.154;2023-07-28T10:39:15;2.40;;;2.20;;
11443;SDS011;5778;47.856;12.154;2023-07-28T10:42:09;2.40;;;2.20;;
11443;SDS011;5778;47.856;12.154;2023-07-28T10:44:36;2.30;;;1.90;;
11443;SDS011;5778;47.856;12.154;2023-07-28T10:47:07;2.40;;;2.20;;
11443;SDS011;5778;47.856;12.154;2023-07-28T10:49:34;2.80;;;2.27;;
11443;SDS011;5778;47.856;12.154;2023-07-28T10:52:01;2.40;;;2.20;;
11443;SDS011;5778;47.856;12.154;2023-07-28T10:54:29;1.90;;;1.80;;
11443;SDS011;5778;47.856;12.154;2023-07-28T10:56:57;2.10;;;1.90;;
11443;SDS011;5778;47.856;12.154;2023-07-28T10:59:30;2.00;;;1.90;;
11443;SDS011;5778;47.856;12.154;2023-07-28T11:01:57;2.60;;;2.30;;
11443;SDS011;5778;47.856;12.154;2023-07-28T11:04:24;2.83;;;2.30;;
11443;SDS011;5778;47.856;12.154;2023-07-28T11:06:51;1.90;;;1.77;;
11443;SDS011;5778;47.856;12.154;2023-07-28T11:09:18;3.40;;;2.10;;
11443;SDS011;5778;47.856;12.154;2023-07-28T11:11:49;2.70;;;1.70;;
11443;SDS011;5778;47.856;12.154;2023-07-28T11:14:16;3.93;;;2.13;;
11443;SDS011;5778;47.856;12.154;2023-07-28T11:16:45;2.50;;;2.30;;
11443;SDS011;5778;47.856;12.154;2023-07-28T11:19:13;2.40;;;2.20;;
11443;SDS011;5778;47.856;12.154;2023-07-28T11:21:41;2.30;;;2.10;;
11443;SDS011;5778;47.856;12.154;2023-07-28T11:24:09;2.40;;;2.20;;
11443;SDS011;5778;47.856;12.154;2023-07-28T11:26:37;2.30;;;1.93;;
11443;SDS011;5778;47.856;12.154;2023-07-28T11:29:05;2.40;;;2.10;;
11443;SDS011;5778;47.856;12.154;2023-07-28T11:31:33;2.43;;;2.17;;
11443;SDS011;5778;47.856;12.154;2023-07-28T11:34:02;2.43;;;2.23;;
11443;SDS011;5778;47.856;12.154;2023-07-28T11:36:29;2.73;;;2.23;;
11443;SDS011;5778;47.856;12.154;2023-07-28T11:38:58;5.80;;;2.27;;
11443;SDS011;5778;47.856;12.154;2023-07-28T11:41:26;2.63;;;2.43;;
11443;SDS011;5778;47.856;12.154;2023-07-28T11:43:54;2.53;;;2.20;;
11443;SDS011;5778;47.856;12.154;2023-07-28T11:46:36;2.63;;;2.40;;
11443;SDS011;5778;47.856;12.154;2023-07-28T11:49:17;2.37;;;2.17;;
11443;SDS011;5778;47.856;12.154;2023-07-28T11:51:48;2.50;;;2.30;;
11443;SDS011;5778;47.856;12.154;2023-07-28T11:54:18;2.50;;;2.30;;
11443;SDS011;5778;47.856;12.154;2023-07-28T11:56:47;2.50;;;2.30;;
11443;SDS011;5778;47.856;12.154;2023-07-28T11:59:15;2.90;;;2.60;;
11443;SDS011;5778;47.856;12.154;2023-07-28T12:01:53;2.67;;;2.47;;
11443;SDS011;5778;47.856;12.154;2023-07-28T12:04:23;2.80;;;2.50;;
11443;SDS011;5778;47.856;12.154;2023-07-28T12:07:04;4.83;;;2.83;;
11443;SDS011;5778;47.856;12.154;2023-07-28T12:09:49;3.17;;;2.80;;
11443;SDS011;5778;47.856;12.154;2023-07-28T12:12:18;2.80;;;2.60;;
11443;SDS011;5778;47.856;12.154;2023-07-28T12:14:46;2.70;;;2.50;;
11443;SDS011;5778;47.856;12.154;2023-07-28T12:17:16;3.80;;;2.60;;
11443;SDS011;5778;47.856;12.154;2023-07-28T12:19:56;2.60;;;2.40;;
11443;SDS011;5778;47.856;12.154;2023-07-28T12:22:25;2.67;;;2.47;;
11443;SDS011;5778;47.856;12.154;2023-07-28T12:24:52;3.43;;;2.70;;
11443;SDS011;5778;47.856;12.154;2023-07-28T12:27:19;2.50;;;2.30;;
11443;SDS011;5778;47.856;12.154;2023-07-28T12:29:48;3.10;;;2.50;;
11443;SDS011;5778;47.856;12.154;2023-07-28T12:32:16;3.43;;;2.67;;
11443;SDS011;5778;47.856;12.154;2023-07-28T12:34:43;3.50;;;2.80;;
11443;SDS011;5778;47.856;12.154;2023-07-28T12:37:11;2.80;;;2.40;;
11443;SDS011;5778;47.856;12.154;2023-07-28T12:39:38;2.90;;;2.30;;
11443;SDS011;5778;47.856;12.154;2023-07-28T12:42:05;2.90;;;2.53;;
11443;SDS011;5778;47.856;12.154;2023-07-28T12:44:33;2.20;;;2.10;;
11443;SDS011;5778;47.856;12.154;2023-07-28T12:47:00;2.47;;;2.27;;
11443;SDS011;5778;47.856;12.154;2023-07-28T12:49:28;2.57;;;2.37;;
11443;SDS011;5778;47.856;12.154;2023-07-28T12:51:55;2.33;;;2.10;;
11443;SDS011;5778;47.856;12.154;2023-07-28T12:54:24;2.40;;;2.20;;
11443;SDS011;5778;47.856;12.154;2023-07-28T12:56:51;2.23;;;2.03;;
11443;SDS011;5778;47.856;12.154;2023-07-28T12:59:18;3.00;;;2.13;;
11443;SDS011;5778;47.856;12.154;2023-07-28T13:01:45;2.33;;;2.13;;
11443;SDS011;5778;47.856;12.154;2023-07-28T13:04:12;2.80;;;2.60;;
11443;SDS011;5778;47.856;12.154;2023-07-28T13:06:39;2.37;;;1.90;;
11443;SDS011;5778;47.856;12.154;2023-07-28T13:09:06;2.33;;;2.03;;
11443;SDS011;5778;47.856;12.154;2023-07-28T13:11:35;2.73;;;2.53;;
11443;SDS011;5778;47.856;12.154;2023-07-28T13:14:02;2.60;;;2.40;;
11443;SDS011;5778;47.856;12.154;2023-07-28T13:16:29;2.30;;;2.10;;
11443;SDS011;5778;47.856;12.154;2023-07-28T13:18:56;2.57;;;2.37;;
11443;SDS011;5778;47.856;12.154;2023-07-28T13:21:24;2.87;;;2.30;;
11443;SDS011;5778;47.856;12.154;2023-07-28T13:23:51;2.37;;;2.17;;
11443;SDS011;5778;47.856;12.154;2023-07-28T13:26:18;2.43;;;2.20;;
11443;SDS011;5778;47.856;12.154;2023-07-28T13:28:46;2.47;;;2.27;;
11443;SDS011;5778;47.856;12.154;2023-07-28T13:31:14;2.77;;;2.40;;
11443;SDS011;5778;47.856;12.154;2023-07-28T13:33:41;2.50;;;2.30;;
11443;SDS011;5778;47.856;12.154;2023-07-28T13:36:09;3.57;;;2.00;;
11443;SDS011;5778;47.856;12.154;2023-07-28T13:38:36;2.50;;;2.30;;
11443;SDS011;5778;47.856;12.154;2023-07-28T13:41:03;2.43;;;2.23;;
11443;SDS011;5778;47.856;12.154;2023-07-28T13:43:32;2.67;;;2.20;;
11443;SDS011;5778;47.856;12.154;2023-07-28T13:46:01;2.20;;;2.10;;
11443;SDS011;5778;47.856;12.154;2023-07-28T13:48:29;2.33;;;2.10;;
11443;SDS011;5778;47.856;12.154;2023-07-28T13:50:56;2.80;;;2.60;;
11443;SDS011;5778;47.856;12.154;2023-07-28T13:53:24;2.00;;;1.90;;
11443;SDS011;5778;47.856;12.154;2023-07-28T13:55:50;2.63;;;2.27;;
11443;SDS011;5778;47.856;12.154;2023-07-28T13:58:17;3.57;;;2.50;;
11443;SDS011;5778;47.856;12.154;2023-07-28T14:00:44;3.17;;;2.20;;
11443;SDS011;5778;47.856;12.154;2023-07-28T14:03:13;2.50;;;2.00;;
11443;SDS011;5778;47.856;12.154;2023-07-28T14:05:41;2.70;;;2.40;;
11443;SDS011;5778;47.856;12.154;2023-07-28T14:08:08;3.10;;;2.40;;
11443;SDS011;5778;47.856;12.154;2023-07-28T14:10:35;3.40;;;2.20;;
11443;SDS011;5778;47.856;12.154;2023-07-28T14:13:03;4.20;;;2.53;;
11443;SDS011;5778;47.856;12.154;2023-07-28T14:15:30;3.50;;;2.20;;
11443;SDS011;5778;47.856;12.154;2023-07-28T14:18:00;3.07;;;2.77;;
11443;SDS011;5778;47.856;12.154;2023-07-28T14:20:28;4.60;;;2.73;;
11443;SDS011;5778;47.856;12.154;2023-07-28T14:22:55;4.23;;;2.50;;
11443;SDS011;5778;47.856;12.154;2023-07-28T14:25:22;2.57;;;2.10;;
11443;SDS011;5778;47.856;12.154;2023-07-28T14:27:49;2.93;;;2.20;;
11443;SDS011;5778;47.856;12.154;2023-07-28T14:30:15;5.33;;;2.30;;
11443;SDS011;5778;47.856;12.154;2023-07-28T14:32:42;2.67;;;2.47;;
11443;SDS011;5778;47.856;12.154;2023-07-28T14:35:09;3.17;;;2.33;;
11443;SDS011;5778;47.856;12.154;2023-07-28T14:37:37;2.50;;;2.30;;
11443;SDS011;5778;47.856;12.154;2023-07-28T14:40:04;2.27;;;2.07;;
11443;SDS011;5778;47.856;12.154;2023-07-28T14:42:32;3.60;;;2.50;;
11443;SDS011;5778;47.856;12.154;2023-07-28T14:44:59;2.90;;;2.60;;
11443;SDS011;5778;47.856;12.154;2023-07-28T14:47:26;3.40;;;2.43;;
11443;SDS011;5778;47.856;12.154;2023-07-28T14:49:53;3.33;;;2.60;;
11443;SDS011;5778;47.856;12.154;2023-07-28T14:52:19;2.27;;;2.10;;
11443;SDS011;5778;47.856;12.154;2023-07-28T14:54:48;2.57;;;2.30;;
11443;SDS011;5778;47.856;12.154;2023-07-28T14:57:14;2.70;;;2.50;;